Time;durP1;ratioP1;P1;durP2;ratioP2;P2;SDS_P1;SDS_P2;PMS_P1;PMS_P2;Temp;Humidity;BMP_temperature;BMP_pressure;BME280_temperature;BME280_humidity;BME280_pressure;Samples;Min_cycle;Max_cycle;Signal;HPM_P1;HPM_P2
2023/10/20 00:01:29;;;;;;;7.32;4.53;;;;;;;;;;5049105;28;20037;-26
2023/10/20 00:03:55;;;;;;;8.02;4.45;;;15.40;83.90;;;;;;5055623;28;20193;-27
2023/10/20 00:06:21;;;;;;;6.80;4.40;;;;;;;;;;5046460;28;20135;-29
2023/10/20 00:08:47;;;;;;;8.00;4.97;;;15.30;76.70;;;;;;5046225;28;20052;-28
2023/10/20 00:11:13;;;;;;;6.85;4.03;;;15.30;84.70;;;;;;5050390;28;20045;-29
2023/10/20 00:13:38;;;;;;;8.70;4.93;;;15.30;75.90;;;;;;5053567;28;20120;-28
2023/10/20 00:16:05;;;;;;;7.38;4.00;;;15.70;76.40;;;;;;5055893;28;20036;-28
2023/10/20 00:18:30;;;;;;;7.05;4.55;;;15.40;80.10;;;;;;5052351;28;20108;-30
2023/10/20 00:20:56;;;;;;;7.57;5.00;;;15.40;81.30;;;;;;5047958;28;20194;-26
2023/10/20 00:23:22;;;;;;;7.05;4.65;;;15.30;84.70;;;;;;5046043;28;20056;-28
2023/10/20 00:25:47;;;;;;;7.35;4.32;;;15.40;82.40;;;;;;5043668;28;20064;-28
2023/10/20 00:28:13;;;;;;;7.75;5.10;;;15.30;84.30;;;;;;5049915;28;20044;-28
2023/10/20 00:30:39;;;;;;;6.82;3.78;;;15.30;75.40;;;;;;5050028;28;20385;-27
2023/10/20 00:33:05;;;;;;;6.97;3.70;;;15.30;77.20;;;;;;5046379;28;20147;-28
2023/10/20 00:35:31;;;;;;;5.88;3.42;;;15.30;75.20;;;;;;5045849;28;20369;-28
2023/10/20 00:37:58;;;;;;;6.30;3.42;;;;;;;;;;5044169;28;20098;-25
2023/10/20 00:40:24;;;;;;;7.22;4.53;;;15.40;75.50;;;;;;5025992;28;20045;-27
2023/10/20 00:42:50;;;;;;;6.78;3.92;;;;;;;;;;5043850;28;20048;-28
2023/10/20 00:45:16;;;;;;;6.50;3.22;;;15.40;82.20;;;;;;5049417;28;20040;-28
2023/10/20 00:47:44;;;;;;;7.47;4.60;;;15.90;85.90;;;;;;5054335;28;20044;-27
2023/10/20 00:50:13;;;;;;;7.20;4.40;;;15.50;74.10;;;;;;5052105;28;20041;-29
2023/10/20 00:52:59;;;;;;;7.07;4.10;;;15.40;82.10;;;;;;5049724;28;20034;-28
2023/10/20 00:55:25;;;;;;;6.78;3.88;;;15.00;74.20;;;;;;5047335;28;20076;-29
2023/10/20 00:57:53;;;;;;;6.20;3.42;;;15.10;73.70;;;;;;5051022;28;20444;-29
2023/10/20 01:00:20;;;;;;;7.50;4.22;;;14.70;73.50;;;;;;5045479;28;20037;-28
2023/10/20 01:02:46;;;;;;;6.60;4.05;;;14.90;70.80;;;;;;5027900;28;20048;-28
2023/10/20 01:05:19;;;;;;;6.70;3.58;;;;;;;;;;5049975;28;20451;-28
2023/10/20 01:07:45;;;;;;;7.28;4.13;;;15.40;83.40;;;;;;5053992;28;20063;-26
2023/10/20 01:10:11;;;;;;;6.78;3.67;;;;;;;;;;5041717;28;20447;-27
2023/10/20 01:12:36;;;;;;;7.38;3.28;;;14.90;71.60;;;;;;5049262;28;20502;-28
2023/10/20 01:15:05;;;;;;;7.03;4.15;;;15.20;72.00;;;;;;5048753;28;20153;-28
2023/10/20 01:17:30;;;;;;;6.88;3.78;;;15.30;70.30;;;;;;5051176;28;20044;-30
2023/10/20 01:20:00;;;;;;;7.55;4.78;;;15.40;71.40;;;;;;5047925;28;20411;-28
2023/10/20 01:22:26;;;;;;;6.47;3.75;;;15.10;70.90;;;;;;5053481;28;20048;-29
2023/10/20 01:24:51;;;;;;;9.15;4.90;;;16.10;72.10;;;;;;5056910;28;20033;-26
2023/10/20 01:27:17;;;;;;;7.85;4.40;;;15.40;76.10;;;;;;5054935;28;20112;-28
2023/10/20 01:29:43;;;;;;;7.53;3.80;;;15.30;69.40;;;;;;5054303;28;20040;-28
2023/10/20 01:32:08;;;;;;;7.43;4.20;;;15.30;73.70;;;;;;5053765;28;20106;-27
2023/10/20 01:34:35;;;;;;;7.63;4.07;;;15.10;70.80;;;;;;5054119;28;20036;-27
2023/10/20 01:37:02;;;;;;;6.50;3.35;;;15.00;67.80;;;;;;5056042;28;20033;-29
2023/10/20 01:39:29;;;;;;;8.15;4.60;;;15.90;67.30;;;;;;5036447;28;20059;-28
2023/10/20 01:41:55;;;;;;;8.07;5.07;;;15.30;78.40;;;;;;5050254;28;20045;-28
2023/10/20 01:44:21;;;;;;;7.60;4.20;;;15.30;69.80;;;;;;5049152;28;20032;-29
2023/10/20 01:46:50;;;;;;;8.25;4.22;;;14.90;79.60;;;;;;5053688;28;20037;-29
2023/10/20 01:49:17;;;;;;;6.72;4.00;;;14.80;65.80;;;;;;5054816;28;20033;-26
2023/10/20 01:51:43;;;;;;;6.25;3.17;;;;;;;;;;5053778;28;20469;-29
2023/10/20 01:54:09;;;;;;;6.53;3.67;;;;;;;;;;5053739;28;20052;-27
2023/10/20 01:56:35;;;;;;;7.20;3.55;;;;;;;;;;5054077;28;20033;-28
2023/10/20 01:59:01;;;;;;;7.10;4.30;;;15.60;71.90;;;;;;5053456;28;20063;-28
2023/10/20 02:01:27;;;;;;;8.45;4.72;;;15.30;67.80;;;;;;5046921;28;20041;-28
2023/10/20 02:03:52;;;;;;;6.03;3.15;;;15.10;66.50;;;;;;5047609;28;20569;-28
2023/10/20 02:06:18;;;;;;;8.25;4.38;;;14.90;65.60;;;;;;5041867;28;20116;-28
2023/10/20 02:08:44;;;;;;;7.10;4.20;;;15.30;76.70;;;;;;5044106;28;20033;-28
2023/10/20 02:11:10;;;;;;;6.55;2.88;;;;;;;;;;5043734;28;20064;-27
2023/10/20 02:13:40;;;;;;;6.82;3.85;;;;;;;;;;5046992;28;20044;-28
2023/10/20 02:16:10;;;;;;;7.15;4.10;;;;;;;;;;5026443;28;20546;-28
2023/10/20 02:18:39;;;;;;;8.48;4.65;;;15.30;75.60;;;;;;5046401;28;20037;-31
2023/10/20 02:21:07;;;;;;;8.00;4.57;;;;;;;;;;5037078;28;20087;-26
2023/10/20 02:23:35;;;;;;;10.07;4.50;;;15.30;75.20;;;;;;5047324;28;20087;-29
2023/10/20 02:26:02;;;;;;;7.13;3.75;;;;;;;;;;5045579;28;20132;-28
2023/10/20 02:28:28;;;;;;;6.65;3.58;;;15.00;66.70;;;;;;5040796;28;20037;-28
2023/10/20 02:30:57;;;;;;;7.72;4.28;;;;;;;;;;5044971;28;20040;-28
2023/10/20 02:33:23;;;;;;;7.15;4.25;;;15.40;78.50;;;;;;5046157;28;20049;-30
2023/10/20 02:35:49;;;;;;;8.35;4.78;;;15.20;77.70;;;;;;5052571;28;20119;-28
2023/10/20 02:38:14;;;;;;;7.80;4.28;;;15.10;73.10;;;;;;5050778;28;20041;-29
2023/10/20 02:40:51;;;;;;;7.68;4.05;;;15.10;59.90;;;;;;5052489;28;20406;-27
2023/10/20 02:43:17;;;;;;;9.18;5.45;;;15.20;67.50;;;;;;5050097;28;20490;-25
2023/10/20 02:45:53;;;;;;;8.98;4.82;;;14.70;38.70;;;;;;5050727;28;20120;-28
2023/10/20 02:48:22;;;;;;;7.40;4.13;;;;;;;;;;5046178;28;20044;-26
2023/10/20 02:50:48;;;;;;;7.80;4.13;;;15.20;75.80;;;;;;5045180;28;20040;-27
2023/10/20 02:53:15;;;;;;;6.97;3.72;;;;;;;;;;5044312;28;20515;-28
2023/10/20 02:55:44;;;;;;;8.00;3.90;;;15.30;74.90;;;;;;5051285;28;20041;-29
2023/10/20 02:58:11;;;;;;;9.50;4.97;;;;;;;;;;5051019;28;20094;-29
2023/10/20 03:00:44;;;;;;;7.75;4.63;;;15.30;39.40;;;;;;5051665;28;20652;-28
2023/10/20 03:03:11;;;;;;;7.88;3.85;;;;;;;;;;5048666;28;20056;-29
2023/10/20 03:05:37;;;;;;;8.57;4.47;;;;;;;;;;5052176;28;20039;-28
2023/10/20 03:08:04;;;;;;;7.95;4.80;;;15.10;66.90;;;;;;5050076;28;20106;-26
2023/10/20 03:10:30;;;;;;;7.25;3.67;;;15.30;77.60;;;;;;5051394;28;20041;-28
2023/10/20 03:12:55;;;;;;;8.55;4.70;;;15.10;63.00;;;;;;5051120;28;20574;-28
2023/10/20 03:15:21;;;;;;;8.93;5.40;;;;;;;;;;5049645;28;20108;-29
2023/10/20 03:17:47;;;;;;;7.93;4.10;;;;;;;;;;5050524;28;20064;-29
2023/10/20 03:20:17;;;;;;;7.47;4.00;;;16.00;62.40;;;;;;5050679;28;20037;-28
2023/10/20 03:22:43;;;;;;;7.30;4.18;;;15.00;63.00;;;;;;5050357;28;20449;-29
2023/10/20 03:25:10;;;;;;;7.45;4.00;;;15.30;61.70;;;;;;5041849;28;20068;-28
2023/10/20 03:27:37;;;;;;;7.88;4.45;;;15.30;71.70;;;;;;5046323;28;20041;-30
2023/10/20 03:30:05;;;;;;;9.93;5.18;;;;;;;;;;5047947;28;20033;-28
2023/10/20 03:32:31;;;;;;;7.38;4.28;;;15.10;66.70;;;;;;5030875;28;20048;-27
2023/10/20 03:34:57;;;;;;;9.13;4.95;;;15.10;63.30;;;;;;5049381;28;20088;-28
2023/10/20 03:37:23;;;;;;;8.40;4.10;;;;;;;;;;5047714;28;20080;-28
2023/10/20 03:39:50;;;;;;;8.32;5.07;;;;;;;;;;5049032;28;20048;-28
2023/10/20 03:42:16;;;;;;;8.13;5.18;;;15.20;61.90;;;;;;5048657;28;20401;-29
2023/10/20 03:44:43;;;;;;;7.57;4.32;;;15.10;59.70;;;;;;5049241;28;20033;-28
2023/10/20 03:47:09;;;;;;;8.52;5.13;;;15.60;61.10;;;;;;5050532;28;20041;-29
2023/10/20 03:49:35;;;;;;;7.43;3.75;;;14.60;60.20;;;;;;5047114;28;20033;-28
2023/10/20 03:52:11;;;;;;;6.85;3.50;;;;;;;;;;5029659;28;20044;-28
2023/10/20 03:54:40;;;;;;;8.20;4.50;;;15.30;65.40;;;;;;5077558;28;20056;-29
2023/10/20 03:57:06;;;;;;;8.48;5.00;;;;;;;;;;5038866;28;20041;-30
2023/10/20 03:59:32;;;;;;;6.47;3.90;;;;;;;;;;5051277;28;20075;-28
2023/10/20 04:01:58;;;;;;;8.02;4.35;;;;;;;;;;5043002;28;20048;-28
2023/10/20 04:04:24;;;;;;;7.65;4.03;;;15.30;66.00;;;;;;5060461;28;20041;-30
2023/10/20 04:06:49;;;;;;;6.78;4.20;;;16.00;59.40;;;;;;5064416;28;20077;-29
2023/10/20 04:09:18;;;;;;;6.88;3.92;;;15.40;68.30;;;;;;5050162;28;20039;-30
2023/10/20 04:11:45;;;;;;;9.43;5.43;;;;;;;;;;5063028;28;20044;-29
2023/10/20 04:14:12;;;;;;;7.05;3.78;;;15.30;67.40;;;;;;5062099;28;20530;-29
2023/10/20 04:16:41;;;;;;;8.60;5.40;;;15.00;57.40;;;;;;5063525;28;20491;-29
2023/10/20 04:19:12;;;;;;;10.55;6.25;;;;;;;;;;5065291;28;20097;-29
2023/10/20 04:21:39;;;;;;;8.85;5.00;;;;;;;;;;5055499;28;20041;-28
2023/10/20 04:24:09;;;;;;;7.22;3.90;;;15.30;64.00;;;;;;5058595;28;20037;-28
2023/10/20 04:26:36;;;;;;;8.10;4.10;;;;;;;;;;5045579;28;20400;-28
2023/10/20 05:01:16;;;;;;;16.15;7.18;;;;;;;;;;5032348;28;20180;-29
2023/10/20 05:03:45;;;;;;;16.98;7.38;;;;;;;;;;5039061;28;20489;-28
2023/10/20 05:06:26;;;;;;;16.85;5.65;;;;;;;;;;5056391;28;20068;-27
2023/10/20 05:08:53;;;;;;;12.25;5.50;;;15.50;69.40;;;;;;5036723;28;20049;-26
2023/10/20 05:11:19;;;;;;;10.55;5.10;;;15.60;69.10;;;;;;5035141;28;20052;-28
2023/10/20 05:13:45;;;;;;;11.27;5.00;;;15.50;66.60;;;;;;5041197;28;20213;-28
2023/10/20 05:16:13;;;;;;;11.85;4.80;;;15.10;72.90;;;;;;5036924;28;20060;-30
2023/10/20 05:18:39;;;;;;;8.88;4.05;;;15.60;61.00;;;;;;5037413;28;20500;-25
2023/10/20 05:21:08;;;;;;;9.23;4.80;;;;;;;;;;5038358;28;20448;-30
2023/10/20 05:23:34;;;;;;;8.45;4.57;;;15.30;71.20;;;;;;5038226;28;20571;-28
2023/10/20 05:26:00;;;;;;;10.30;5.10;;;15.00;58.40;;;;;;5047564;28;20126;-25
2023/10/20 05:28:26;;;;;;;8.77;4.55;;;15.40;58.80;;;;;;5046353;28;20082;-28
2023/10/20 05:30:52;;;;;;;7.50;3.92;;;15.80;70.00;;;;;;5041367;28;20048;-28
2023/10/20 05:33:18;;;;;;;8.20;3.90;;;15.40;58.60;;;;;;5056610;28;20041;-28
2023/10/20 05:35:43;;;;;;;7.75;4.32;;;15.50;65.70;;;;;;5057351;28;20524;-27
2023/10/20 05:38:09;;;;;;;6.93;4.05;;;15.50;69.00;;;;;;5055198;28;20070;-28
2023/10/20 05:40:36;;;;;;;7.60;3.35;;;15.40;68.20;;;;;;5055155;28;20036;-28
2023/10/20 05:43:05;;;;;;;7.03;3.35;;;;;;;;;;5065600;28;20082;-26
2023/10/20 05:45:36;;;;;;;7.15;3.88;;;15.10;56.60;;;;;;5054185;28;20041;-31
2023/10/20 05:48:05;;;;;;;7.70;3.72;;;;;;;;;;5065035;28;20127;-27
2023/10/20 05:50:33;;;;;;;5.95;3.08;;;;;;;;;;5053884;28;20103;-29
2023/10/20 05:52:59;;;;;;;8.80;3.58;;;15.40;62.30;;;;;;5051770;28;20112;-28
2023/10/20 05:55:25;;;;;;;7.13;3.60;;;;;;;;;;4987042;28;20051;-28
2023/10/20 05:57:51;;;;;;;6.70;3.22;;;15.60;64.90;;;;;;5034455;28;20059;-31
2023/10/20 06:00:16;;;;;;;6.90;3.30;;;15.50;64.10;;;;;;5039099;28;20559;-29
2023/10/20 06:02:44;;;;;;;6.07;2.80;;;15.30;71.10;;;;;;5040951;28;20497;-28
2023/10/20 06:05:09;;;;;;;6.03;3.30;;;15.40;63.30;;;;;;5038435;28;20029;-29
2023/10/20 06:07:35;;;;;;;6.45;3.13;;;15.10;57.50;;;;;;5040655;28;20502;-27
2023/10/20 06:10:01;;;;;;;7.30;3.33;;;15.40;62.20;;;;;;5040604;28;20037;-25
2023/10/20 06:12:27;;;;;;;7.45;3.10;;;;;;;;;;5040739;28;20045;-24
2023/10/20 06:14:52;;;;;;;6.50;2.67;;;15.40;60.70;;;;;;5039594;28;20040;-29
2023/10/20 06:17:19;;;;;;;6.30;2.65;;;;;;;;;;5046838;28;20045;-29
2023/10/20 06:19:48;;;;;;;5.80;2.70;;;;;;;;;;5042941;28;20034;-26
2023/10/20 06:22:14;;;;;;;5.40;2.65;;;15.50;64.00;;;;;;5040745;28;20096;-29
2023/10/20 06:24:39;;;;;;;5.90;3.03;;;15.20;61.70;;;;;;5039754;28;20064;-27
2023/10/20 06:27:05;;;;;;;6.35;3.05;;;;;;;;;;5039420;28;20448;-25
2023/10/20 06:29:54;;;;;;;8.18;2.60;;;;;;;;;;5040904;28;20033;-28
2023/10/20 06:32:25;;;;;;;5.85;2.90;;;15.40;61.60;;;;;;5038531;28;20107;-28
2023/10/20 06:34:59;;;;;;;6.22;2.47;;;;;;;;;;5043285;28;20053;-28
2023/10/20 06:37:29;;;;;;;4.97;2.28;;;15.40;58.10;;;;;;5044283;28;20045;-27
2023/10/20 06:39:56;;;;;;;4.95;2.05;;;;;;;;;;5040384;28;20060;-27
2023/10/20 06:42:24;;;;;;;5.40;2.30;;;;;;;;;;5040937;28;20048;-30
2023/10/20 06:44:50;;;;;;;5.43;2.50;;;;;;;;;;5041931;28;21128;-28
2023/10/20 06:47:16;;;;;;;6.32;2.65;;;15.40;52.10;;;;;;5042114;28;20037;-27
2023/10/20 06:49:42;;;;;;;5.13;2.40;;;15.50;52.20;;;;;;5039289;28;20480;-28
2023/10/20 06:52:08;;;;;;;4.75;2.20;;;;;;;;;;5036224;28;20037;-29
2023/10/20 06:54:34;;;;;;;4.72;1.80;;;;;;;;;;5041152;28;20393;-25
2023/10/20 06:57:01;;;;;;;4.78;1.85;;;15.10;45.50;;;;;;5044245;28;20112;-25
2023/10/20 06:59:27;;;;;;;4.20;1.90;;;;;;;;;;5044746;28;20080;-26
2023/10/20 07:01:59;;;;;;;4.93;2.17;;;15.50;52.00;;;;;;5046410;28;21203;-28
2023/10/20 07:04:27;;;;;;;4.70;2.00;;;;;;;;;;5045024;28;20538;-27
2023/10/20 07:06:53;;;;;;;4.47;1.70;;;15.40;53.30;;;;;;5046679;28;20480;-28
2023/10/20 07:09:20;;;;;;;4.30;1.80;;;15.50;52.10;;;;;;5043225;28;20061;-30
2023/10/20 07:11:46;;;;;;;4.70;1.70;;;15.40;53.10;;;;;;5045191;28;20048;-31
2023/10/20 07:14:11;;;;;;;5.15;2.03;;;15.60;57.00;;;;;;5040199;28;20057;-29
2023/10/20 07:16:37;;;;;;;4.40;1.70;;;15.30;44.90;;;;;;5048030;28;20044;-29
2023/10/20 07:19:04;;;;;;;4.35;1.73;;;;;;;;;;5027257;28;20116;-28
2023/10/20 07:21:30;;;;;;;5.28;2.15;;;;;;;;;;5044372;28;20036;-25
2023/10/20 07:23:56;;;;;;;4.30;1.50;;;;;;;;;;5045979;28;20040;-27
2023/10/20 07:26:23;;;;;;;4.63;1.80;;;15.50;49.30;;;;;;5044245;28;20094;-28
2023/10/20 07:28:50;;;;;;;4.22;1.55;;;15.70;23.10;;;;;;5045577;28;20526;-28
2023/10/20 07:31:18;;;;;;;4.63;1.95;;;15.50;48.50;;;;;;5043457;28;20186;-27
2023/10/20 07:33:43;;;;;;;4.10;1.40;;;15.50;46.80;;;;;;5039943;28;20121;-28
2023/10/20 07:36:10;;;;;;;4.22;1.48;;;;;;;;;;5041869;28;20074;-27
2023/10/20 07:38:36;;;;;;;4.40;1.60;;;16.10;47.10;;;;;;5043756;28;20115;-29
2023/10/20 07:41:09;;;;;;;3.70;1.48;;;;;;;;;;5039660;28;20622;-25
2023/10/20 07:43:35;;;;;;;5.30;2.00;;;15.40;39.80;;;;;;5040412;28;20163;-28
2023/10/20 07:46:02;;;;;;;4.50;1.65;;;;;;;;;;5044387;28;20033;-27
2023/10/20 07:48:28;;;;;;;4.55;1.83;;;15.40;46.30;;;;;;5041678;28;20425;-29
2023/10/20 07:50:56;;;;;;;4.03;1.40;;;15.40;44.00;;;;;;5038443;28;20057;-26
2023/10/20 07:53:22;;;;;;;4.38;1.90;;;15.50;39.00;;;;;;5040514;28;20044;-28
2023/10/20 07:55:48;;;;;;;4.53;1.48;;;15.40;43.70;;;;;;5041400;28;20056;-29
2023/10/20 07:58:13;;;;;;;5.47;1.55;;;15.50;43.50;;;;;;5037748;28;20300;-28
2023/10/20 08:00:39;;;;;;;4.03;1.30;;;15.10;41.00;;;;;;5041376;28;20102;-27
2023/10/20 08:03:05;;;;;;;3.70;1.52;;;;;;;;;;5039492;28;20048;-28
2023/10/20 08:05:32;;;;;;;3.80;1.30;;;;;;;;;;5044642;28;20041;-26
2023/10/20 08:07:58;;;;;;;4.95;1.80;;;;;;;;;;5038953;28;20037;-28
2023/10/20 08:10:24;;;;;;;4.57;1.35;;;15.40;42.80;;;;;;5025917;28;20514;-30
2023/10/20 08:12:49;;;;;;;3.47;1.27;;;15.50;40.30;;;;;;5040951;28;20115;-27
2023/10/20 08:15:15;;;;;;;3.80;1.40;;;;;;;;;;5036328;28;20044;-28
2023/10/20 08:17:44;;;;;;;4.20;1.55;;;15.50;38.60;;;;;;5041363;28;20116;-29
2023/10/20 08:20:11;;;;;;;3.95;1.38;;;;;;;;;;5039480;28;20045;-26
2023/10/20 08:22:37;;;;;;;3.92;1.30;;;;;;;;;;5039541;28;20567;-28
2023/10/20 08:25:03;;;;;;;4.25;1.65;;;;;;;;;;5038762;28;20043;-28
2023/10/20 08:27:29;;;;;;;4.32;1.45;;;15.20;39.20;;;;;;5040548;28;20079;-27
2023/10/20 08:29:57;;;;;;;3.70;1.30;;;;;;;;;;5037255;28;20073;-26
2023/10/20 08:32:26;;;;;;;2.97;1.00;;;15.50;35.90;;;;;;5039736;28;20110;-27
2023/10/20 08:34:53;;;;;;;3.20;1.20;;;15.00;33.30;;;;;;5041822;28;20056;-26
2023/10/20 08:37:19;;;;;;;3.55;1.30;;;;;;;;;;5041369;28;20045;-26
2023/10/20 08:39:45;;;;;;;6.18;1.30;;;;;;;;;;5041835;28;20549;-30
2023/10/20 08:42:18;;;;;;;3.83;1.20;;;;;;;;;;5037618;28;20497;-28
2023/10/20 08:44:51;;;;;;;3.50;1.25;;;15.40;37.00;;;;;;5039646;28;20099;-26
2023/10/20 08:47:19;;;;;;;4.47;1.20;;;;;;;;;;5040634;28;20033;-26
2023/10/20 08:49:46;;;;;;;4.30;1.40;;;;;;;;;;5039011;28;20379;-31
2023/10/20 08:52:13;;;;;;;4.10;1.20;;;15.30;10.40;;;;;;5070852;28;20139;-29
2023/10/20 08:54:38;;;;;;;3.33;1.50;;;15.40;30.00;;;;;;5039427;28;20048;-27
2023/10/20 08:57:05;;;;;;;3.67;1.27;;;;;;;;;;5041052;28;20041;-25
2023/10/20 08:59:37;;;;;;;2.95;1.00;;;;;;;;;;5038039;28;20408;-25
2023/10/20 09:02:03;;;;;;;4.75;1.42;;;15.50;24.50;;;;;;5040368;28;20048;-29
2023/10/20 09:04:29;;;;;;;5.38;1.30;;;15.10;23.10;;;;;;5040499;28;20033;-26
2023/10/20 09:06:55;;;;;;;3.25;1.20;;;;;;;;;;5037223;28;20041;-27
2023/10/20 09:09:21;;;;;;;3.80;1.50;;;;;;;;;;5040191;28;20041;-28
2023/10/20 09:11:47;;;;;;;4.25;1.20;;;15.10;30.30;;;;;;5038662;28;20048;-26
2023/10/20 09:14:14;;;;;;;3.55;1.20;;;15.50;30.60;;;;;;5035279;28;20110;-28
2023/10/20 09:16:40;;;;;;;2.95;1.10;;;15.40;28.80;;;;;;5037294;28;20071;-28
2023/10/20 09:19:09;;;;;;;3.60;1.30;;;16.10;20.60;;;;;;5040408;28;20059;-26
2023/10/20 09:21:35;;;;;;;4.03;1.30;;;;;;;;;;5020602;28;20056;-27
2023/10/20 09:24:03;;;;;;;3.50;1.00;;;15.20;10.50;;;;;;5037891;28;20087;-28
2023/10/20 09:26:30;;;;;;;3.15;1.10;;;;;;;;;;5040228;28;20033;-26
2023/10/20 09:28:57;;;;;;;2.92;1.00;;;;;;;;;;5038831;28;20048;-25
2023/10/20 09:31:23;;;;;;;3.35;1.10;;;;;;;;;;5038531;28;20083;-30
2023/10/20 09:33:50;;;;;;;2.67;1.10;;;15.20;19.50;;;;;;5039092;28;20508;-30
2023/10/20 09:36:16;;;;;;;3.13;1.13;;;15.30;22.90;;;;;;5040443;28;20451;-28
2023/10/20 09:38:53;;;;;;;2.83;1.02;;;15.10;11.50;;;;;;5040038;28;20068;-29
2023/10/20 09:41:24;;;;;;;2.88;1.10;;;14.70;10.30;;;;;;5042678;28;20529;-29
2023/10/20 09:44:07;;;;;;;3.25;1.20;;;;;;;;;;5042322;28;20488;-26
2023/10/20 09:47:06;;;;;;;3.00;1.05;;;15.20;15.30;;;;;;5059285;28;20373;-30
2023/10/20 09:49:35;;;;;;;3.80;0.98;;;15.20;21.40;;;;;;5041362;28;20040;-26
2023/10/20 09:52:01;;;;;;;3.47;1.08;;;;;;;;;;5042938;28;20055;-27
2023/10/20 09:54:31;;;;;;;3.17;1.10;;;;;;;;;;5044633;28;20069;-28
2023/10/20 09:56:57;;;;;;;3.17;1.00;;;;;;;;;;5044536;28;20462;-27
2023/10/20 09:59:25;;;;;;;2.42;0.93;;;;;;;;;;5040222;28;20806;-28
2023/10/20 10:02:01;;;;;;;3.42;1.05;;;;;;;;;;5040125;28;20144;-28
2023/10/20 10:04:29;;;;;;;2.45;0.90;;;;;;;;;;5044099;28;20068;-26
2023/10/20 10:06:55;;;;;;;2.30;0.88;;;;;;;;;;5042031;28;20049;-27
2023/10/20 10:09:22;;;;;;;4.63;0.93;;;15.20;13.10;;;;;;5041668;28;20532;-28
2023/10/20 10:11:48;;;;;;;3.03;0.90;;;15.20;15.90;;;;;;5039795;28;20040;-31
2023/10/20 10:14:19;;;;;;;3.13;1.00;;;;;;;;;;5040031;28;20041;-28
2023/10/20 10:16:50;;;;;;;1.77;0.70;;;15.10;4.30;;;;;;5037941;28;20412;-28
2023/10/20 10:19:17;;;;;;;2.92;1.10;;;15.20;16.10;;;;;;5023750;28;20060;-29
2023/10/20 10:21:47;;;;;;;2.20;0.93;;;15.50;20.30;;;;;;5041727;28;20032;-27
2023/10/20 10:24:16;;;;;;;1.88;0.80;;;15.10;15.80;;;;;;5039248;28;20048;-26
2023/10/20 10:26:46;;;;;;;3.58;1.20;;;;;;;;;;5039551;28;20534;-27
2023/10/20 10:29:12;;;;;;;1.98;0.70;;;15.20;12.10;;;;;;5037893;28;20061;-26
2023/10/20 10:31:38;;;;;;;1.90;0.80;;;;;;;;;;5037648;28;20045;-26
2023/10/20 10:34:05;;;;;;;2.90;0.95;;;;;;;;;;5040421;28;20098;-29
2023/10/20 10:36:31;;;;;;;3.10;0.90;;;;;;;;;;5043092;28;20036;-29
2023/10/20 10:38:57;;;;;;;1.80;0.77;;;15.00;8.80;;;;;;5041760;28;20496;-27
2023/10/20 10:41:24;;;;;;;2.22;0.82;;;15.20;14.80;;;;;;5034903;28;20048;-28
2023/10/20 10:43:57;;;;;;;3.58;0.95;;;;;;;;;;5038328;28;20629;-26
2023/10/20 10:46:33;;;;;;;1.95;0.82;;;;;;;;;;5041872;28;20079;-29
2023/10/20 10:49:05;;;;;;;2.55;0.90;;;;;;;;;;5036799;28;20040;-25
2023/10/20 10:51:31;;;;;;;3.05;0.90;;;;;;;;;;5041798;28;20044;-24
2023/10/20 10:53:57;;;;;;;2.20;0.70;;;15.20;11.20;;;;;;5039137;28;20041;-27
2023/10/20 10:56:24;;;;;;;2.75;0.82;;;;;;;;;;5038988;28;20649;-28
2023/10/20 10:58:50;;;;;;;2.53;0.90;;;15.10;7.60;;;;;;5038987;28;20052;-33
2023/10/20 11:01:16;;;;;;;2.63;0.93;;;15.20;10.50;;;;;;5040267;28;20052;-29
2023/10/20 11:03:42;;;;;;;2.28;0.80;;;15.10;1.00;;;;;;5038397;28;20037;-29
2023/10/20 11:06:08;;;;;;;2.72;0.90;;;15.70;2.60;;;;;;5038113;28;20485;-26
2023/10/20 11:08:34;;;;;;;2.20;0.80;;;15.50;12.20;;;;;;5040113;28;20569;-26
2023/10/20 11:10:59;;;;;;;1.88;0.90;;;15.20;10.00;;;;;;5040077;28;20072;-28
2023/10/20 11:13:27;;;;;;;5.80;0.90;;;14.90;1.00;;;;;;5040029;28;20071;-26
2023/10/20 11:15:53;;;;;;;2.70;0.90;;;15.20;5.10;;;;;;5039239;28;20492;-26
2023/10/20 11:18:20;;;;;;;5.57;1.10;;;15.10;6.70;;;;;;5040474;28;20833;-27
2023/10/20 11:20:49;;;;;;;2.53;0.90;;;;;;;;;;5037169;28;20393;-28
2023/10/20 11:23:19;;;;;;;3.88;0.98;;;15.00;1.00;;;;;;5038388;28;20110;-28
2023/10/20 11:25:47;;;;;;;2.10;0.77;;;;;;;;;;5043060;28;20033;-28
2023/10/20 11:28:13;;;;;;;1.70;0.75;;;14.90;4.40;;;;;;5040524;28;20447;-28
2023/10/20 11:30:41;;;;;;;2.15;0.80;;;;;;;;;;5040429;28;20029;-28
2023/10/20 11:33:10;;;;;;;2.67;0.80;;;15.10;1.00;;;;;;5035500;28;20450;-28
2023/10/20 11:35:36;;;;;;;1.98;0.80;;;15.10;1.00;;;;;;5044648;28;20033;-28
2023/10/20 11:38:03;;;;;;;2.72;0.80;;;15.10;1.00;;;;;;5044698;28;20039;-25
2023/10/20 11:40:29;;;;;;;2.10;0.80;;;15.00;7.50;;;;;;5038104;28;20033;-26
2023/10/20 11:42:56;;;;;;;3.95;1.00;;;;;;;;;;5042764;28;20447;-29
2023/10/20 11:45:22;;;;;;;3.30;0.80;;;;;;;;;;5037042;28;20040;-29
2023/10/20 11:47:48;;;;;;;1.85;0.68;;;;;;;;;;5044560;28;20033;-29
2023/10/20 11:50:15;;;;;;;1.50;0.70;;;15.00;1.00;;;;;;5037188;28;20519;-28
2023/10/20 11:52:41;;;;;;;2.35;0.70;;;15.00;1.00;;;;;;5041152;28;20036;-29
2023/10/20 11:55:11;;;;;;;2.17;0.70;;;;;;;;;;5039032;28;20068;-29
2023/10/20 11:57:40;;;;;;;3.20;0.80;;;14.90;1.00;;;;;;5041823;28;20412;-28
2023/10/20 12:00:10;;;;;;;1.38;0.75;;;;;;;;;;5041699;28;20385;-30
2023/10/20 12:02:36;;;;;;;2.67;0.80;;;15.30;1.00;;;;;;5036150;28;20037;-29
2023/10/20 12:05:02;;;;;;;1.60;0.60;;;15.00;1.00;;;;;;5045760;28;20496;-27
2023/10/20 12:07:28;;;;;;;2.17;0.70;;;;;;;;;;5037740;28;20087;-29
2023/10/20 12:09:54;;;;;;;2.25;0.80;;;14.90;1.00;;;;;;5045824;28;20136;-28
2023/10/20 12:12:20;;;;;;;2.13;0.82;;;15.10;1.00;;;;;;5040187;28;20136;-29
2023/10/20 12:14:46;;;;;;;1.60;0.63;;;15.10;1.00;;;;;;5038378;28;20201;-27
2023/10/20 12:17:12;;;;;;;2.75;0.70;;;15.00;1.00;;;;;;5039551;28;20064;-28
2023/10/20 12:19:41;;;;;;;1.80;0.68;;;;;;;;;;5041457;28;20049;-26
2023/10/20 12:22:11;;;;;;;3.30;0.80;;;;;;;;;;5019597;28;20051;-28
2023/10/20 12:24:40;;;;;;;2.50;0.82;;;;;;;;;;5041303;28;20147;-28
2023/10/20 12:27:13;;;;;;;0.82;0.57;;;;;;;;;;5034763;28;20049;-27
2023/10/20 12:29:39;;;;;;;1.80;0.80;;;15.70;1.00;;;;;;5040915;28;20037;-28
2023/10/20 12:32:07;;;;;;;1.77;0.60;;;;;;;;;;5038425;28;20032;-28
2023/10/20 12:34:33;;;;;;;1.50;0.70;;;14.80;1.00;;;;;;5042272;28;20334;-28
2023/10/20 12:37:01;;;;;;;1.38;0.80;;;;;;;;;;5036444;28;20127;-26
2023/10/20 12:39:28;;;;;;;1.45;0.60;;;15.00;1.00;;;;;;5042503;28;20112;-25
2023/10/20 12:41:54;;;;;;;1.75;0.73;;;15.00;1.00;;;;;;5041458;28;20041;-28
2023/10/20 12:44:20;;;;;;;2.03;0.70;;;15.00;1.00;;;;;;5037937;28;20049;-28
2023/10/20 12:46:46;;;;;;;2.50;0.70;;;15.00;1.00;;;;;;5039035;28;22460;-28
2023/10/20 12:49:12;;;;;;;1.67;0.80;;;15.00;2.20;;;;;;5040958;28;20416;-26
2023/10/20 12:51:40;;;;;;;1.35;0.60;;;15.50;1.00;;;;;;5037716;28;20044;-28
2023/10/20 12:54:07;;;;;;;1.88;0.73;;;14.90;1.00;;;;;;5039072;28;20045;-28
2023/10/20 12:56:32;;;;;;;1.65;0.60;;;15.00;1.00;;;;;;5039309;28;20041;-27
2023/10/20 12:58:59;;;;;;;2.20;0.75;;;;;;;;;;5037683;28;20055;-28
2023/10/20 13:01:25;;;;;;;1.90;0.70;;;;;;;;;;5040921;28;20044;-27
2023/10/20 13:03:51;;;;;;;2.00;0.80;;;15.00;1.00;;;;;;5040989;28;20041;-28
2023/10/20 13:06:17;;;;;;;2.25;0.70;;;15.00;1.00;;;;;;5039625;28;20393;-28
2023/10/20 13:08:44;;;;;;;0.85;0.60;;;15.10;1.00;;;;;;5038905;28;20056;-26
2023/10/20 13:11:11;;;;;;;1.45;0.60;;;;;;;;;;5040705;28;20043;-29
2023/10/20 13:13:36;;;;;;;3.10;0.80;;;15.00;1.00;;;;;;5039807;28;20072;-28
2023/10/20 13:16:02;;;;;;;1.45;0.70;;;15.00;1.00;;;;;;5044076;28;20079;-25
2023/10/20 13:18:28;;;;;;;1.33;0.65;;;15.00;1.00;;;;;;5044734;28;20037;-25
2023/10/20 13:20:54;;;;;;;2.28;0.88;;;15.20;1.00;;;;;;5041889;28;20144;-28
2023/10/20 13:23:20;;;;;;;2.72;0.77;;;15.00;1.00;;;;;;5044384;28;20376;-30
2023/10/20 13:25:49;;;;;;;1.13;0.63;;;14.90;1.00;;;;;;5042864;28;20482;-28
2023/10/20 13:28:15;;;;;;;1.58;0.70;;;14.90;1.00;;;;;;5026337;28;20041;-29
2023/10/20 13:30:41;;;;;;;0.80;0.70;;;15.00;1.00;;;;;;5024654;28;20037;-27
2023/10/20 13:33:07;;;;;;;2.05;0.65;;;14.90;1.00;;;;;;5041999;28;20506;-28
2023/10/20 13:35:37;;;;;;;1.00;0.60;;;14.30;1.00;;;;;;5044749;28;20040;-24
2023/10/20 13:38:03;;;;;;;1.15;0.60;;;14.80;1.00;;;;;;5044082;28;20036;-27
2023/10/20 13:40:29;;;;;;;1.10;0.70;;;;;;;;;;5045597;28;20112;-28
2023/10/20 13:42:56;;;;;;;1.38;0.60;;;;;;;;;;5043812;28;20060;-27
2023/10/20 13:45:21;;;;;;;1.35;0.55;;;15.40;1.00;;;;;;5043921;28;20048;-28
2023/10/20 13:47:48;;;;;;;0.82;0.60;;;14.80;1.00;;;;;;5042967;28;20496;-28
2023/10/20 13:50:17;;;;;;;1.25;0.63;;;14.20;1.00;;;;;;5040624;28;20037;-28
2023/10/20 13:52:44;;;;;;;1.40;0.68;;;14.90;1.00;;;;;;5039686;28;20041;-26
2023/10/20 13:55:12;;;;;;;0.85;0.60;;;14.90;1.00;;;;;;5042854;28;20404;-28
2023/10/20 13:57:38;;;;;;;1.73;0.73;;;14.80;1.00;;;;;;5043417;28;20033;-26
2023/10/20 14:00:06;;;;;;;1.77;0.70;;;;;;;;;;5043384;28;20043;-26